createdAt,value
2023-01-25T00:02:26.897Z,25.40
2023-01-25T00:05:13.647Z,25.37
2023-01-25T00:08:01.799Z,25.37
2023-01-25T00:10:52.445Z,29.27
2023-01-25T00:13:39.207Z,24.70
2023-01-25T00:16:25.998Z,29.60
2023-01-25T00:19:13.235Z,28.37
2023-01-25T00:21:59.955Z,31.73
2023-01-25T00:24:48.326Z,28.07
2023-01-25T00:27:35.221Z,21.13
2023-01-25T00:30:22.213Z,33.20
2023-01-25T00:33:44.819Z,28.67
2023-01-25T00:36:41.177Z,30.77
2023-01-25T00:39:30.853Z,33.97
2023-01-25T00:42:20.611Z,32.77
2023-01-25T00:45:08.721Z,30.33
2023-01-25T00:47:56.387Z,28.00
2023-01-25T00:50:43.315Z,27.80
2023-01-25T00:53:30.044Z,28.40
2023-01-25T00:56:16.853Z,32.93
2023-01-25T00:59:05.065Z,25.03
2023-01-25T01:01:53.534Z,24.93
2023-01-25T01:04:40.297Z,23.10
2023-01-25T01:07:29.076Z,27.17
2023-01-25T01:10:16.035Z,27.40
2023-01-25T01:13:02.919Z,42.37
2023-01-25T01:15:51.986Z,26.93
2023-01-25T01:18:40.928Z,22.53
2023-01-25T01:21:28.283Z,27.23
2023-01-25T01:24:18.113Z,27.83
2023-01-25T01:27:04.762Z,23.70
2023-01-25T01:29:51.460Z,24.33
2023-01-25T01:32:40.161Z,23.60
2023-01-25T01:35:26.841Z,19.37
2023-01-25T01:38:13.717Z,23.73
2023-01-25T01:41:00.515Z,23.83
2023-01-25T01:43:47.728Z,22.17
2023-01-25T01:46:37.658Z,25.70
2023-01-25T01:49:33.120Z,21.90
2023-01-25T01:52:32.184Z,22.83
2023-01-25T01:55:24.322Z,21.70
2023-01-25T01:58:12.389Z,20.27
2023-01-25T02:00:59.513Z,23.00
2023-01-25T02:03:46.066Z,21.27
2023-01-25T02:06:43.968Z,22.00
2023-01-25T02:09:34.721Z,21.63
2023-01-25T02:12:24.295Z,21.73
2023-01-25T02:15:12.149Z,25.90
2023-01-25T02:17:59.893Z,20.37
2023-01-25T02:20:49.668Z,23.07
2023-01-25T02:23:43.901Z,18.50
2023-01-25T02:26:32.431Z,23.73
2023-01-25T02:29:23.727Z,23.27
2023-01-25T02:32:12.086Z,25.30
2023-01-25T02:34:58.701Z,17.93
2023-01-25T02:37:45.743Z,19.87
2023-01-25T02:40:37.803Z,23.30
2023-01-25T02:43:30.421Z,23.87
2023-01-25T02:46:23.689Z,20.27
2023-01-25T02:49:10.910Z,19.33
2023-01-25T02:51:58.181Z,22.60
2023-01-25T02:54:45.831Z,20.10
2023-01-25T02:57:32.714Z,21.60
2023-01-25T03:00:21.860Z,26.03
2023-01-25T03:03:08.265Z,17.83
2023-01-25T03:05:55.130Z,22.03
2023-01-25T03:08:41.950Z,18.13
2023-01-25T03:11:28.669Z,20.23
2023-01-25T03:14:16.844Z,23.93
2023-01-25T03:17:05.405Z,18.30
2023-01-25T03:19:54.019Z,23.17
2023-01-25T03:22:42.020Z,18.13
2023-01-25T03:25:29.256Z,24.00
2023-01-25T03:28:27.095Z,15.93
2023-01-25T03:31:16.086Z,16.77
2023-01-25T03:34:04.394Z,27.03
2023-01-25T03:36:55.384Z,19.50
2023-01-25T03:39:42.178Z,19.03
2023-01-25T03:42:28.947Z,15.80
2023-01-25T03:45:17.767Z,18.97
2023-01-25T03:48:05.187Z,17.17
2023-01-25T03:50:55.019Z,15.73
2023-01-25T03:53:41.341Z,24.50
2023-01-25T03:56:35.245Z,21.27
2023-01-25T03:59:37.411Z,19.17
2023-01-25T04:02:24.371Z,20.27
2023-01-25T04:05:11.214Z,16.43
2023-01-25T04:07:59.599Z,14.50
2023-01-25T04:10:58.935Z,21.33
2023-01-25T04:13:45.575Z,18.30
2023-01-25T04:16:36.221Z,19.67
2023-01-25T04:19:40.877Z,22.13
2023-01-25T04:22:31.136Z,23.37
2023-01-25T04:25:20.470Z,20.43
2023-01-25T04:28:11.855Z,18.40
2023-01-25T04:30:59.871Z,21.40
2023-01-25T04:33:53.024Z,15.90
2023-01-25T04:36:40.171Z,17.43
2023-01-25T04:39:27.500Z,23.47
2023-01-25T04:42:15.747Z,21.50
2023-01-25T04:45:05.860Z,22.87
2023-01-25T04:47:57.430Z,19.33
2023-01-25T04:50:44.931Z,21.80
2023-01-25T04:53:32.965Z,25.67
2023-01-25T04:56:21.279Z,20.30
2023-01-25T04:59:14.759Z,19.70
2023-01-25T05:02:02.672Z,19.93
2023-01-25T05:04:49.494Z,17.47
2023-01-25T05:07:38.654Z,16.67
2023-01-25T05:10:25.246Z,21.83
2023-01-25T05:13:47.363Z,22.63
2023-01-25T05:16:42.025Z,23.03
2023-01-25T05:19:28.432Z,18.37
2023-01-25T05:22:21.098Z,17.17
2023-01-25T05:25:31.829Z,22.23
2023-01-25T05:28:18.968Z,20.50
2023-01-25T05:31:32.218Z,21.20
2023-01-25T05:34:20.239Z,30.10
2023-01-25T05:37:09.397Z,21.03
2023-01-25T05:40:01.163Z,20.57
2023-01-25T05:42:54.854Z,18.50
2023-01-25T05:45:43.530Z,21.17
2023-01-25T05:48:31.231Z,25.13
2023-01-25T05:51:20.129Z,19.97
2023-01-25T05:54:08.821Z,21.40
2023-01-25T05:56:55.652Z,21.63
2023-01-25T05:59:43.078Z,21.80
2023-01-25T06:02:32.556Z,20.83
2023-01-25T06:05:19.332Z,22.53
2023-01-25T06:08:07.564Z,21.53
2023-01-25T06:11:08.488Z,19.47
2023-01-25T06:13:56.504Z,22.73
2023-01-25T06:16:43.513Z,20.60
2023-01-25T06:19:58.609Z,17.07
2023-01-25T06:22:56.004Z,20.77
2023-01-25T06:25:44.324Z,23.77
2023-01-25T06:28:32.135Z,27.23
2023-01-25T06:31:19.745Z,23.47
2023-01-25T06:34:08.203Z,24.77
2023-01-25T06:36:55.183Z,27.37
2023-01-25T06:39:41.974Z,21.10
2023-01-25T06:42:30.188Z,23.70
2023-01-25T06:45:17.159Z,22.80
2023-01-25T06:48:03.761Z,24.40
2023-01-25T06:50:57.939Z,24.57
2023-01-25T06:53:46.029Z,23.87
2023-01-25T06:56:33.431Z,26.27
2023-01-25T06:59:21.359Z,26.90
2023-01-25T07:02:08.316Z,26.10
2023-01-25T07:04:55.127Z,23.20
2023-01-25T07:07:41.698Z,25.23
2023-01-25T07:10:28.483Z,20.70
2023-01-25T07:13:15.433Z,29.67
2023-01-25T07:16:05.348Z,26.30
2023-01-25T07:18:51.743Z,29.23
2023-01-25T07:21:38.671Z,27.33
2023-01-25T07:24:27.372Z,26.33
2023-01-25T07:27:13.987Z,29.10
2023-01-25T07:30:00.806Z,25.33
2023-01-25T07:32:49.030Z,34.00
2023-01-25T07:35:36.601Z,24.97
2023-01-25T07:38:23.259Z,25.50
2023-01-25T07:41:10.136Z,24.10
2023-01-25T07:43:57.523Z,30.60
2023-01-25T07:46:55.209Z,29.37
2023-01-25T07:49:43.419Z,26.73
2023-01-25T07:52:29.801Z,30.43
2023-01-25T07:55:16.726Z,29.60
2023-01-25T07:58:03.330Z,27.40
2023-01-25T08:00:50.128Z,31.40
2023-01-25T08:03:37.448Z,31.67
2023-01-25T08:06:30.742Z,32.97
2023-01-25T08:09:20.130Z,27.47
2023-01-25T08:12:08.784Z,25.33
2023-01-25T08:14:55.577Z,26.77
2023-01-25T08:17:42.313Z,26.53
2023-01-25T08:20:29.099Z,27.13
2023-01-25T08:23:17.360Z,25.87
2023-01-25T08:26:08.820Z,29.93
2023-01-25T08:28:58.200Z,26.63
2023-01-25T08:31:45.659Z,26.00
2023-01-25T08:34:34.849Z,30.30
2023-01-25T08:37:22.208Z,26.37
2023-01-25T08:40:19.284Z,23.70
2023-01-25T08:43:06.148Z,28.23
2023-01-25T08:45:57.851Z,27.57
2023-01-25T08:48:44.607Z,23.03
2023-01-25T08:51:32.655Z,28.77
2023-01-25T08:54:19.586Z,23.27
2023-01-25T08:57:07.790Z,25.20
2023-01-25T08:59:54.227Z,30.03
2023-01-25T09:02:41.131Z,22.97
2023-01-25T09:05:29.577Z,25.30
2023-01-25T09:08:16.308Z,26.63
2023-01-25T09:11:03.522Z,22.90
2023-01-25T09:13:52.073Z,32.00
2023-01-25T09:16:39.037Z,30.53
2023-01-25T09:19:25.817Z,31.97
2023-01-25T09:22:12.556Z,24.17
2023-01-25T09:24:59.406Z,35.53
2023-01-25T09:27:46.227Z,25.80
2023-01-25T09:30:46.166Z,28.10
2023-01-25T09:33:43.107Z,25.93
2023-01-25T09:36:29.766Z,25.93
2023-01-25T09:39:16.496Z,23.47
2023-01-25T09:42:27.470Z,24.30
2023-01-25T09:45:24.506Z,23.50
2023-01-25T09:48:22.026Z,22.47
2023-01-25T09:51:22.043Z,23.93
2023-01-25T09:54:11.113Z,29.07
2023-01-25T09:56:59.547Z,31.37
2023-01-25T09:59:48.450Z,26.63
2023-01-25T10:02:41.682Z,27.43
2023-01-25T10:05:34.055Z,25.80
2023-01-25T10:08:28.263Z,27.20
2023-01-25T10:11:22.374Z,24.07
2023-01-25T10:14:14.879Z,22.93
2023-01-25T10:17:09.436Z,25.70
2023-01-25T10:20:10.436Z,24.20
2023-01-25T10:23:15.590Z,19.67
2023-01-25T10:26:08.493Z,28.73
2023-01-25T10:29:04.352Z,28.70
2023-01-25T10:31:53.646Z,23.97
2023-01-25T10:34:55.930Z,22.37
2023-01-25T10:37:44.502Z,25.93
2023-01-25T10:40:41.053Z,23.13
2023-01-25T10:43:28.028Z,25.50
2023-01-25T10:46:21.083Z,19.77
2023-01-25T10:49:23.189Z,20.00
2023-01-25T10:52:18.310Z,16.17
2023-01-25T10:55:14.796Z,19.27
2023-01-25T10:58:02.931Z,17.80
2023-01-25T11:00:53.482Z,28.57
2023-01-25T11:03:42.378Z,24.70
2023-01-25T11:06:37.192Z,24.10
2023-01-25T11:09:35.635Z,30.97
2023-01-25T11:12:22.901Z,25.00
2023-01-25T11:15:26.545Z,26.90
2023-01-25T11:18:17.282Z,25.87
2023-01-25T11:21:12.071Z,26.63
2023-01-25T11:24:01.221Z,26.43
2023-01-25T11:26:48.056Z,22.33
2023-01-25T11:29:34.469Z,26.53
2023-01-25T11:32:26.047Z,25.77
2023-01-25T11:35:15.021Z,27.77
2023-01-25T11:38:13.731Z,20.10
2023-01-25T11:41:11.195Z,33.17
2023-01-25T11:44:21.121Z,31.30
2023-01-25T11:47:23.459Z,28.17
2023-01-25T11:50:17.462Z,24.03
2023-01-25T11:53:27.924Z,30.60
2023-01-25T11:56:24.064Z,26.07
2023-01-25T11:59:23.780Z,27.07
2023-01-25T12:02:32.994Z,24.20
2023-01-25T12:05:45.649Z,23.97
2023-01-25T12:08:54.345Z,29.87
2023-01-25T12:12:00.900Z,27.57
2023-01-25T12:15:04.095Z,33.80
2023-01-25T12:18:15.026Z,28.13
2023-01-25T12:21:17.416Z,24.23
2023-01-25T12:24:23.820Z,31.97
2023-01-25T12:27:25.764Z,32.33
2023-01-25T12:30:22.654Z,32.87
2023-01-25T12:33:16.323Z,24.43
2023-01-25T12:36:09.454Z,30.97
2023-01-25T12:39:00.541Z,34.37
2023-01-25T12:41:52.071Z,29.03
2023-01-25T12:44:41.907Z,30.03
2023-01-25T12:47:36.368Z,32.53
2023-01-25T12:50:28.773Z,26.40
2023-01-25T12:53:22.108Z,27.57
2023-01-25T12:56:13.738Z,25.23
2023-01-25T12:59:09.871Z,34.33
2023-01-25T13:02:03.867Z,34.23
2023-01-25T13:05:02.616Z,30.20
2023-01-25T13:07:57.904Z,31.70
2023-01-25T13:10:51.201Z,26.40
2023-01-25T13:13:38.000Z,32.20
2023-01-25T13:16:43.326Z,29.27
2023-01-25T13:19:42.240Z,30.77
2023-01-25T13:22:59.721Z,31.60
2023-01-25T13:25:49.653Z,31.33
2023-01-25T13:28:45.746Z,33.63
2023-01-25T13:31:51.905Z,34.00
2023-01-25T13:34:59.796Z,34.70
2023-01-25T13:37:46.518Z,31.60
2023-01-25T13:40:36.004Z,32.70
2023-01-25T13:43:24.030Z,35.47
2023-01-25T13:46:15.353Z,33.00
2023-01-25T13:49:05.954Z,35.50
2023-01-25T13:51:53.621Z,29.23
2023-01-25T13:54:44.448Z,33.60
2023-01-25T13:57:32.524Z,34.83
2023-01-25T14:00:22.313Z,34.73
2023-01-25T14:03:09.759Z,31.33
2023-01-25T14:05:58.969Z,35.83
2023-01-25T14:08:47.373Z,30.07
2023-01-25T14:11:36.643Z,36.17
2023-01-25T14:14:27.944Z,32.57
2023-01-25T14:17:21.369Z,41.53
2023-01-25T14:20:19.618Z,38.63
2023-01-25T14:23:07.859Z,38.63
2023-01-25T14:25:59.288Z,41.07
2023-01-25T14:28:59.204Z,41.53
2023-01-25T14:31:53.317Z,39.73
2023-01-25T14:34:42.872Z,35.63
2023-01-25T14:37:31.263Z,35.97
2023-01-25T14:40:23.650Z,31.83
2023-01-25T14:43:11.630Z,34.30
2023-01-25T14:45:59.889Z,44.43
2023-01-25T14:48:48.490Z,36.73
2023-01-25T14:51:42.261Z,39.43
2023-01-25T14:54:31.537Z,40.17
2023-01-25T14:57:33.137Z,43.73
2023-01-25T15:00:23.123Z,38.83
2023-01-25T15:03:17.971Z,37.77
2023-01-25T15:06:06.172Z,35.30
2023-01-25T15:08:54.393Z,40.73
2023-01-25T15:11:46.402Z,40.53
2023-01-25T15:14:33.318Z,34.37
2023-01-25T15:17:41.463Z,35.40
2023-01-25T15:20:36.980Z,40.53
2023-01-25T15:23:25.443Z,42.33
2023-01-25T15:26:21.220Z,43.60
2023-01-25T15:29:14.591Z,42.23
2023-01-25T15:32:01.419Z,47.43
2023-01-25T15:34:48.817Z,49.03
2023-01-25T15:37:35.402Z,36.50
2023-01-25T15:40:23.065Z,41.43
2023-01-25T15:43:13.882Z,50.23
2023-01-25T15:46:01.919Z,41.73
2023-01-25T15:48:50.350Z,45.80
2023-01-25T15:51:37.237Z,37.90
2023-01-25T15:54:24.590Z,41.73
2023-01-25T15:57:21.762Z,48.23
2023-01-25T16:00:17.090Z,51.07
2023-01-25T16:03:04.019Z,49.50
2023-01-25T16:05:55.146Z,49.83
2023-01-25T16:08:41.885Z,42.23
2023-01-25T16:11:29.098Z,49.63
2023-01-25T16:14:15.756Z,42.63
2023-01-25T16:17:05.827Z,42.80
2023-01-25T16:19:52.720Z,43.67
2023-01-25T16:22:39.552Z,43.57
2023-01-25T16:25:26.299Z,32.80
2023-01-25T16:28:15.683Z,36.67
2023-01-25T16:31:02.624Z,42.63
2023-01-25T16:33:51.081Z,40.87
2023-01-25T16:36:39.515Z,39.17
2023-01-25T16:39:28.505Z,37.10
2023-01-25T16:42:15.536Z,43.30
2023-01-25T16:45:02.230Z,44.37
2023-01-25T16:47:49.641Z,44.87
2023-01-25T16:50:37.594Z,38.73
2023-01-25T16:53:24.507Z,45.13
2023-01-25T16:56:17.224Z,40.47
2023-01-25T16:59:06.125Z,37.97
2023-01-25T17:01:53.305Z,41.37
2023-01-25T17:04:40.131Z,40.43
2023-01-25T17:07:28.254Z,45.77
2023-01-25T17:10:15.109Z,34.90
2023-01-25T17:13:01.974Z,35.60
2023-01-25T17:15:48.723Z,39.43
2023-01-25T17:18:35.473Z,42.37
2023-01-25T17:21:22.710Z,39.10
2023-01-25T17:24:14.403Z,36.03
2023-01-25T17:27:01.584Z,36.37
2023-01-25T17:29:48.274Z,37.57
2023-01-25T17:32:34.938Z,38.53
2023-01-25T17:35:21.755Z,33.47
2023-01-25T17:38:09.191Z,35.97
2023-01-25T17:40:57.216Z,29.50
2023-01-25T17:43:44.275Z,27.27
2023-01-25T17:46:33.420Z,32.33
2023-01-25T17:49:22.515Z,30.10
2023-01-25T17:52:09.438Z,40.50
2023-01-25T17:54:56.271Z,31.77
2023-01-25T17:57:44.588Z,36.37
2023-01-25T18:00:31.505Z,22.80
2023-01-25T18:03:18.157Z,30.03
2023-01-25T18:06:09.178Z,28.57
2023-01-25T18:09:00.036Z,31.33
2023-01-25T18:11:46.502Z,27.63
2023-01-25T18:14:36.136Z,32.57
2023-01-25T18:17:22.830Z,35.33
2023-01-25T18:20:11.869Z,34.57
2023-01-25T18:22:58.498Z,31.93
2023-01-25T18:25:45.449Z,32.17
2023-01-25T18:28:32.296Z,27.13
2023-01-25T18:31:20.789Z,30.57
2023-01-25T18:34:07.295Z,26.87
2023-01-25T18:36:58.383Z,29.60
2023-01-25T18:39:45.037Z,25.60
2023-01-25T18:42:31.856Z,21.00
2023-01-25T18:45:18.684Z,28.90
2023-01-25T18:48:07.570Z,32.13
2023-01-25T18:50:54.195Z,29.07
2023-01-25T18:53:43.568Z,32.30
2023-01-25T18:56:31.738Z,27.97
2023-01-25T18:59:18.074Z,27.30
2023-01-25T19:02:05.759Z,32.37
2023-01-25T19:04:53.800Z,29.13
2023-01-25T19:07:40.253Z,30.73
2023-01-25T19:10:27.228Z,35.23
2023-01-25T19:13:14.080Z,32.40
2023-01-25T19:16:02.447Z,32.73
2023-01-25T19:18:52.833Z,31.33
2023-01-25T19:21:41.923Z,26.87
2023-01-25T19:24:28.932Z,26.60
2023-01-25T19:27:15.430Z,23.70
2023-01-25T19:30:02.116Z,22.60
2023-01-25T19:32:49.003Z,22.67
2023-01-25T19:35:35.825Z,27.57
2023-01-25T19:38:23.877Z,29.13
2023-01-25T19:41:13.618Z,26.57
2023-01-25T19:44:01.802Z,22.87
2023-01-25T19:46:49.481Z,28.00
2023-01-25T19:49:36.366Z,22.07
2023-01-25T19:52:23.164Z,22.90
2023-01-25T19:55:11.749Z,22.50
2023-01-25T19:57:58.516Z,26.93
2023-01-25T20:00:45.191Z,23.50
2023-01-25T20:03:32.213Z,18.33
2023-01-25T20:06:20.384Z,23.90
2023-01-25T20:09:07.242Z,17.90
2023-01-25T20:11:57.737Z,24.63
2023-01-25T20:14:44.505Z,17.80
2023-01-25T20:17:31.241Z,22.07
2023-01-25T20:20:18.143Z,24.00
2023-01-25T20:23:04.773Z,18.23
2023-01-25T20:25:59.047Z,18.80
2023-01-25T20:28:51.625Z,18.73
2023-01-25T20:31:41.215Z,22.30
2023-01-25T20:34:27.918Z,21.87
2023-01-25T20:37:14.428Z,21.73
2023-01-25T20:40:01.407Z,17.33
2023-01-25T20:42:47.855Z,20.60
2023-01-25T20:45:38.314Z,26.33
2023-01-25T20:48:25.584Z,23.00
2023-01-25T20:51:14.065Z,23.83
2023-01-25T20:54:01.220Z,23.33
2023-01-25T20:56:48.645Z,13.47
2023-01-25T20:59:35.579Z,19.40
2023-01-25T21:02:25.018Z,17.20
2023-01-25T21:05:12.045Z,19.47
2023-01-25T21:07:59.069Z,14.20
2023-01-25T21:10:50.823Z,17.83
2023-01-25T21:13:37.376Z,15.27
2023-01-25T21:16:24.916Z,18.57
2023-01-25T21:19:12.711Z,13.93
2023-01-25T21:21:59.543Z,14.87
2023-01-25T21:24:46.344Z,18.40
2023-01-25T21:27:33.067Z,11.60
2023-01-25T21:30:22.470Z,22.87
2023-01-25T21:33:10.486Z,19.47
2023-01-25T21:36:02.579Z,17.57
2023-01-25T21:38:50.915Z,15.87
2023-01-25T21:41:38.658Z,13.90
2023-01-25T21:44:42.709Z,20.23
2023-01-25T21:47:31.473Z,17.53
2023-01-25T21:50:35.554Z,14.07
2023-01-25T21:53:23.987Z,15.33
2023-01-25T21:56:10.530Z,12.17
2023-01-25T21:58:57.779Z,15.83
2023-01-25T22:01:44.895Z,15.57
2023-01-25T22:04:35.934Z,14.60
2023-01-25T22:07:22.328Z,19.63
2023-01-25T22:10:12.172Z,18.03
2023-01-25T22:12:59.275Z,13.70
2023-01-25T22:15:46.016Z,13.23
2023-01-25T22:18:35.724Z,14.33
2023-01-25T22:21:24.199Z,12.43
2023-01-25T22:24:12.250Z,15.10
2023-01-25T22:27:37.601Z,13.67
2023-01-25T22:30:24.594Z,18.27
2023-01-25T22:33:10.976Z,12.67
2023-01-25T22:35:57.873Z,14.27
2023-01-25T22:38:44.749Z,13.07
2023-01-25T22:41:33.585Z,11.17
2023-01-25T22:44:22.665Z,14.53
2023-01-25T22:47:09.356Z,13.43
2023-01-25T22:49:56.206Z,14.47
2023-01-25T22:52:42.948Z,11.07
2023-01-25T22:55:30.939Z,13.63
2023-01-25T22:58:17.491Z,11.27
2023-01-25T23:01:09.693Z,13.60
2023-01-25T23:03:57.077Z,12.63
2023-01-25T23:06:43.795Z,11.43
2023-01-25T23:09:30.727Z,11.27
2023-01-25T23:12:17.662Z,12.90
2023-01-25T23:15:07.230Z,9.13
2023-01-25T23:18:12.969Z,11.57
2023-01-25T23:21:03.481Z,9.27
2023-01-25T23:23:50.519Z,12.87
2023-01-25T23:26:39.167Z,8.83
2023-01-25T23:29:25.838Z,8.70
2023-01-25T23:32:12.638Z,11.73
2023-01-25T23:35:00.767Z,12.07
2023-01-25T23:37:48.604Z,8.50
2023-01-25T23:40:35.283Z,10.53
2023-01-25T23:43:22.264Z,10.93
2023-01-25T23:46:09.407Z,9.10
2023-01-25T23:48:56.335Z,9.37
2023-01-25T23:51:44.182Z,9.77
2023-01-25T23:54:30.935Z,13.97
2023-01-25T23:57:17.499Z,11.97
